sensor_id;sensor_type;location;lat;lon;timestamp;pressure;altitude;pressure_sealevel;temperature;humidity
79411;BME280;69635;50.964;6.948;2023-06-22T00:01:24;101255.75;;;22.85;53.54
79411;BME280;69635;50.964;6.948;2023-06-22T00:03:53;101256.78;;;22.83;53.32
79411;BME280;69635;50.964;6.948;2023-06-22T00:06:27;101251.38;;;22.83;53.12
79411;BME280;69635;50.964;6.948;2023-06-22T00:08:54;101222.44;;;22.66;53.29
79411;BME280;69635;50.964;6.948;2023-06-22T00:11:22;101224.38;;;22.63;53.61
79411;BME280;69635;50.964;6.948;2023-06-22T00:13:52;101220.22;;;22.56;53.78
79411;BME280;69635;50.964;6.948;2023-06-22T00:16:18;101224.13;;;22.47;53.72
79411;BME280;69635;50.964;6.948;2023-06-22T00:18:49;101222.44;;;22.45;53.84
79411;BME280;69635;50.964;6.948;2023-06-22T00:21:19;101225.06;;;22.46;54.30
79411;BME280;69635;50.964;6.948;2023-06-22T00:23:53;101224.25;;;22.44;54.01
79411;BME280;69635;50.964;6.948;2023-06-22T00:26:30;101226.13;;;22.42;54.04
79411;BME280;69635;50.964;6.948;2023-06-22T00:29:01;101225.00;;;22.48;53.99
79411;BME280;69635;50.964;6.948;2023-06-22T00:31:30;101239.31;;;22.50;54.17
79411;BME280;69635;50.964;6.948;2023-06-22T00:33:59;101238.47;;;22.48;54.14
79411;BME280;69635;50.964;6.948;2023-06-22T00:36:27;101224.25;;;22.44;54.24
79411;BME280;69635;50.964;6.948;2023-06-22T00:38:58;101219.06;;;22.40;54.10
79411;BME280;69635;50.964;6.948;2023-06-22T00:41:29;101228.00;;;22.40;54.42
79411;BME280;69635;50.964;6.948;2023-06-22T00:43:56;101223.72;;;22.36;54.43
79411;BME280;69635;50.964;6.948;2023-06-22T00:46:22;101228.09;;;22.39;54.19
79411;BME280;69635;50.964;6.948;2023-06-22T00:48:49;101227.22;;;22.38;54.40
79411;BME280;69635;50.964;6.948;2023-06-22T00:51:16;101241.25;;;22.46;54.42
79411;BME280;69635;50.964;6.948;2023-06-22T00:53:42;101253.38;;;22.58;54.21
79411;BME280;69635;50.964;6.948;2023-06-22T00:56:08;101237.00;;;22.41;54.07
79411;BME280;69635;50.964;6.948;2023-06-22T00:58:37;101242.13;;;22.47;54.14
79411;BME280;69635;50.964;6.948;2023-06-22T01:01:06;101259.69;;;22.57;54.33
79411;BME280;69635;50.964;6.948;2023-06-22T01:03:35;101247.25;;;22.53;54.47
79411;BME280;69635;50.964;6.948;2023-06-22T01:06:10;101250.16;;;22.48;54.29
79411;BME280;69635;50.964;6.948;2023-06-22T01:08:52;101253.38;;;22.58;54.15
79411;BME280;69635;50.964;6.948;2023-06-22T01:11:26;101251.53;;;22.58;54.07
79411;BME280;69635;50.964;6.948;2023-06-22T01:14:06;101246.22;;;22.57;54.08
79411;BME280;69635;50.964;6.948;2023-06-22T01:16:37;101241.81;;;22.54;54.15
79411;BME280;69635;50.964;6.948;2023-06-22T01:22:08;101248.09;;;22.55;54.22
79411;BME280;69635;50.964;6.948;2023-06-22T01:25:03;101241.84;;;22.53;54.42
79411;BME280;69635;50.964;6.948;2023-06-22T01:30:02;101237.50;;;22.50;54.50
79411;BME280;69635;50.964;6.948;2023-06-22T01:32:33;101230.28;;;22.51;54.65
79411;BME280;69635;50.964;6.948;2023-06-22T01:35:01;101223.19;;;22.48;54.46
79411;BME280;69635;50.964;6.948;2023-06-22T01:37:29;101230.41;;;22.48;54.52
79411;BME280;69635;50.964;6.948;2023-06-22T01:39:57;101223.44;;;22.42;54.76
79411;BME280;69635;50.964;6.948;2023-06-22T01:42:24;101227.16;;;22.40;54.71
79411;BME280;69635;50.964;6.948;2023-06-22T01:44:52;101218.31;;;22.36;54.71
79411;BME280;69635;50.964;6.948;2023-06-22T01:47:18;101210.31;;;22.35;54.73
79411;BME280;69635;50.964;6.948;2023-06-22T01:49:45;101215.88;;;22.30;54.75
79411;BME280;69635;50.964;6.948;2023-06-22T01:52:11;101215.88;;;22.30;54.97
79411;BME280;69635;50.964;6.948;2023-06-22T01:54:38;101213.31;;;22.27;54.91
79411;BME280;69635;50.964;6.948;2023-06-22T01:57:03;101211.56;;;22.26;55.05
79411;BME280;69635;50.964;6.948;2023-06-22T01:59:34;101216.94;;;22.26;55.04
79411;BME280;69635;50.964;6.948;2023-06-22T02:02:06;101215.34;;;22.22;55.09
79411;BME280;69635;50.964;6.948;2023-06-22T02:04:44;101203.91;;;22.15;55.06
79411;BME280;69635;50.964;6.948;2023-06-22T02:07:14;101196.78;;;22.14;54.95
79411;BME280;69635;50.964;6.948;2023-06-22T02:09:44;101204.13;;;22.11;55.06
79411;BME280;69635;50.964;6.948;2023-06-22T02:12:12;101205.88;;;22.12;55.28
79411;BME280;69635;50.964;6.948;2023-06-22T02:14:39;101206.00;;;22.09;55.34
79411;BME280;69635;50.964;6.948;2023-06-22T02:17:05;101208.84;;;22.06;55.35
79411;BME280;69635;50.964;6.948;2023-06-22T02:19:37;101205.31;;;22.04;55.58
79411;BME280;69635;50.964;6.948;2023-06-22T02:22:03;101210.66;;;22.05;55.66
79411;BME280;69635;50.964;6.948;2023-06-22T02:24:38;101212.44;;;22.05;55.60
79411;BME280;69635;50.964;6.948;2023-06-22T02:27:04;101215.16;;;22.05;55.42
79411;BME280;69635;50.964;6.948;2023-06-22T02:29:32;101204.44;;;22.03;55.36
79411;BME280;69635;50.964;6.948;2023-06-22T02:31:58;101200.94;;;22.01;55.64
79411;BME280;69635;50.964;6.948;2023-06-22T02:34:23;101192.78;;;22.03;55.41
79411;BME280;69635;50.964;6.948;2023-06-22T02:36:49;101184.75;;;22.01;54.94
79411;BME280;69635;50.964;6.948;2023-06-22T02:39:22;101194.47;;;22.05;55.35
79411;BME280;69635;50.964;6.948;2023-06-22T02:41:52;101199.78;;;22.07;55.26
79411;BME280;69635;50.964;6.948;2023-06-22T02:44:17;101192.53;;;22.09;55.25
79411;BME280;69635;50.964;6.948;2023-06-22T02:46:43;101186.31;;;22.07;55.21
79411;BME280;69635;50.964;6.948;2023-06-22T02:49:10;101192.66;;;22.06;55.15
79411;BME280;69635;50.964;6.948;2023-06-22T02:51:38;101184.59;;;22.06;55.39
79411;BME280;69635;50.964;6.948;2023-06-22T02:54:05;101184.63;;;22.04;55.26
79411;BME280;69635;50.964;6.948;2023-06-22T02:56:30;101173.06;;;22.02;55.36
79411;BME280;69635;50.964;6.948;2023-06-22T02:58:56;101174.94;;;22.00;55.75
79411;BME280;69635;50.964;6.948;2023-06-22T03:01:26;101176.81;;;21.98;55.38
79411;BME280;69635;50.964;6.948;2023-06-22T03:03:53;101171.53;;;21.95;55.55
79411;BME280;69635;50.964;6.948;2023-06-22T03:06:19;101169.72;;;21.96;55.45
79411;BME280;69635;50.964;6.948;2023-06-22T03:08:49;101168.97;;;21.92;55.58
79411;BME280;69635;50.964;6.948;2023-06-22T03:11:15;101166.34;;;21.91;55.64
79411;BME280;69635;50.964;6.948;2023-06-22T03:13:40;101170.00;;;21.90;55.76
79411;BME280;69635;50.964;6.948;2023-06-22T03:16:05;101166.41;;;21.89;56.15
79411;BME280;69635;50.964;6.948;2023-06-22T03:18:31;101164.72;;;21.87;55.59
79411;BME280;69635;50.964;6.948;2023-06-22T03:20:56;101156.63;;;21.87;55.80
79411;BME280;69635;50.964;6.948;2023-06-22T03:23:21;101164.25;;;21.97;55.50
79411;BME280;69635;50.964;6.948;2023-06-22T03:25:47;101163.41;;;21.97;55.92
79411;BME280;69635;50.964;6.948;2023-06-22T03:28:12;101161.47;;;22.00;55.81
79411;BME280;69635;50.964;6.948;2023-06-22T03:30:38;101169.59;;;21.99;55.63
79411;BME280;69635;50.964;6.948;2023-06-22T03:33:03;101162.47;;;21.98;55.60
79411;BME280;69635;50.964;6.948;2023-06-22T03:35:29;101163.88;;;22.06;55.35
79411;BME280;69635;50.964;6.948;2023-06-22T03:37:54;101156.69;;;22.07;55.38
79411;BME280;69635;50.964;6.948;2023-06-22T03:40:20;101154.94;;;22.06;55.53
79411;BME280;69635;50.964;6.948;2023-06-22T03:42:46;101149.41;;;22.09;55.49
79411;BME280;69635;50.964;6.948;2023-06-22T03:45:11;101149.28;;;22.12;55.63
79411;BME280;69635;50.964;6.948;2023-06-22T03:47:37;101147.53;;;22.11;55.67
79411;BME280;69635;50.964;6.948;2023-06-22T03:50:02;101149.41;;;22.09;56.06
79411;BME280;69635;50.964;6.948;2023-06-22T03:52:29;101147.66;;;22.08;56.62
79411;BME280;69635;50.964;6.948;2023-06-22T03:54:55;101146.13;;;22.02;56.83
79411;BME280;69635;50.964;6.948;2023-06-22T03:57:20;101134.56;;;21.99;57.71
79411;BME280;69635;50.964;6.948;2023-06-22T03:59:46;101141.72;;;22.00;56.84
79411;BME280;69635;50.964;6.948;2023-06-22T04:02:11;101141.50;;;22.04;56.85
79411;BME280;69635;50.964;6.948;2023-06-22T04:04:37;101137.81;;;22.07;57.03
79411;BME280;69635;50.964;6.948;2023-06-22T04:07:04;101143.88;;;22.12;56.79
79411;BME280;69635;50.964;6.948;2023-06-22T04:09:30;101140.19;;;22.14;56.86
79411;BME280;69635;50.964;6.948;2023-06-22T04:11:55;101137.50;;;22.14;56.92
79411;BME280;69635;50.964;6.948;2023-06-22T04:14:20;101134.59;;;22.19;56.95
79411;BME280;69635;50.964;6.948;2023-06-22T04:16:46;101134.47;;;22.22;57.31
79411;BME280;69635;50.964;6.948;2023-06-22T04:19:11;101127.25;;;22.23;57.71
79411;BME280;69635;50.964;6.948;2023-06-22T04:21:42;101133.38;;;22.26;57.33
79411;BME280;69635;50.964;6.948;2023-06-22T04:24:07;101136.88;;;22.28;57.64
79411;BME280;69635;50.964;6.948;2023-06-22T04:26:33;101124.09;;;22.33;57.89
79411;BME280;69635;50.964;6.948;2023-06-22T04:29:03;101130.56;;;22.29;57.87
79411;BME280;69635;50.964;6.948;2023-06-22T04:31:34;101135.22;;;22.26;58.47
79411;BME280;69635;50.964;6.948;2023-06-22T04:34:03;101139.97;;;22.19;59.09
79411;BME280;69635;50.964;6.948;2023-06-22T04:36:36;101143.16;;;22.29;58.93
79411;BME280;69635;50.964;6.948;2023-06-22T04:39:10;101146.00;;;22.26;59.42
79411;BME280;69635;50.964;6.948;2023-06-22T04:41:37;101144.25;;;22.25;60.01
79411;BME280;69635;50.964;6.948;2023-06-22T04:44:12;101138.03;;;22.23;60.27
79411;BME280;69635;50.964;6.948;2023-06-22T04:46:39;101144.06;;;22.29;60.48
79411;BME280;69635;50.964;6.948;2023-06-22T04:49:09;101146.75;;;22.29;60.52
79411;BME280;69635;50.964;6.948;2023-06-22T04:51:41;101155.09;;;22.23;61.01
79411;BME280;69635;50.964;6.948;2023-06-22T04:54:08;101162.28;;;22.23;61.04
79411;BME280;69635;50.964;6.948;2023-06-22T04:56:34;101158.66;;;22.24;61.53
79411;BME280;69635;50.964;6.948;2023-06-22T04:58:59;101152.84;;;22.12;62.33
79411;BME280;69635;50.964;6.948;2023-06-22T05:01:25;101159.06;;;22.14;61.92
79411;BME280;69635;50.964;6.948;2023-06-22T05:03:51;101155.06;;;22.03;62.48
79411;BME280;69635;50.964;6.948;2023-06-22T05:06:21;101156.63;;;22.08;62.83
79411;BME280;69635;50.964;6.948;2023-06-22T05:08:58;101152.28;;;22.04;63.10
79411;BME280;69635;50.964;6.948;2023-06-22T05:11:28;101152.34;;;22.03;63.94
79411;BME280;69635;50.964;6.948;2023-06-22T05:13:53;101142.91;;;21.93;64.69
79411;BME280;69635;50.964;6.948;2023-06-22T05:16:20;101151.31;;;21.85;65.80
79411;BME280;69635;50.964;6.948;2023-06-22T05:18:52;101153.84;;;21.90;65.79
79411;BME280;69635;50.964;6.948;2023-06-22T05:21:21;101150.03;;;21.94;65.76
79411;BME280;69635;50.964;6.948;2023-06-22T05:23:48;101149.06;;;21.96;65.68
79411;BME280;69635;50.964;6.948;2023-06-22T05:26:13;101137.59;;;21.91;65.40
79411;BME280;69635;50.964;6.948;2023-06-22T05:28:39;101145.41;;;21.97;65.42
79411;BME280;69635;50.964;6.948;2023-06-22T05:31:04;101146.72;;;22.09;65.04
79411;BME280;69635;50.964;6.948;2023-06-22T05:33:30;101146.56;;;22.12;65.29
79411;BME280;69635;50.964;6.948;2023-06-22T05:35:55;101139.38;;;22.12;64.81
79411;BME280;69635;50.964;6.948;2023-06-22T05:38:20;101151.66;;;22.20;64.91
79411;BME280;69635;50.964;6.948;2023-06-22T05:40:46;101147.75;;;22.27;64.80
79411;BME280;69635;50.964;6.948;2023-06-22T05:43:11;101138.31;;;22.37;64.35
79411;BME280;69635;50.964;6.948;2023-06-22T05:45:37;101127.25;;;22.43;64.08
79411;BME280;69635;50.964;6.948;2023-06-22T05:48:02;101140.16;;;22.56;63.60
79411;BME280;69635;50.964;6.948;2023-06-22T05:50:28;101151.56;;;22.63;63.42
79411;BME280;69635;50.964;6.948;2023-06-22T05:52:53;101155.34;;;22.79;62.60
79411;BME280;69635;50.964;6.948;2023-06-22T05:55:19;101151.25;;;22.89;62.60
79411;BME280;69635;50.964;6.948;2023-06-22T05:57:44;101149.53;;;23.06;62.11
79411;BME280;69635;50.964;6.948;2023-06-22T06:00:10;101147.13;;;23.19;61.42
79411;BME280;69635;50.964;6.948;2023-06-22T06:02:37;101152.88;;;23.50;60.42
79411;BME280;69635;50.964;6.948;2023-06-22T06:05:02;101154.81;;;24.71;57.11
79411;BME280;69635;50.964;6.948;2023-06-22T06:07:28;101150.59;;;25.63;54.76
79411;BME280;69635;50.964;6.948;2023-06-22T06:09:54;101153.69;;;26.18;52.44
79411;BME280;69635;50.964;6.948;2023-06-22T06:12:20;101160.06;;;26.01;51.84
79411;BME280;69635;50.964;6.948;2023-06-22T06:14:45;101158.53;;;26.13;51.23
79411;BME280;69635;50.964;6.948;2023-06-22T06:17:10;101169.44;;;25.96;51.82
79411;BME280;69635;50.964;6.948;2023-06-22T06:19:36;101161.16;;;25.19;53.85
79411;BME280;69635;50.964;6.948;2023-06-22T06:22:01;101163.81;;;24.71;56.28
79411;BME280;69635;50.964;6.948;2023-06-22T06:24:27;101164.44;;;24.59;56.70
79411;BME280;69635;50.964;6.948;2023-06-22T06:26:52;101169.78;;;24.78;56.01
79411;BME280;69635;50.964;6.948;2023-06-22T06:29:18;101163.97;;;24.68;56.28
79411;BME280;69635;50.964;6.948;2023-06-22T06:31:43;101169.00;;;24.42;57.47
79411;BME280;69635;50.964;6.948;2023-06-22T06:34:09;101171.72;;;24.76;56.70
79411;BME280;69635;50.964;6.948;2023-06-22T06:36:34;101177.25;;;24.73;58.14
79411;BME280;69635;50.964;6.948;2023-06-22T06:38:59;101173.59;;;25.23;56.98
79411;BME280;69635;50.964;6.948;2023-06-22T06:41:25;101171.16;;;25.35;55.83
79411;BME280;69635;50.964;6.948;2023-06-22T06:43:50;101174.63;;;25.54;55.48
79411;BME280;69635;50.964;6.948;2023-06-22T06:46:19;101174.25;;;24.79;57.68
79411;BME280;69635;50.964;6.948;2023-06-22T06:48:44;101161.06;;;25.21;57.76
79411;BME280;69635;50.964;6.948;2023-06-22T06:51:09;101159.56;;;25.48;55.90
79411;BME280;69635;50.964;6.948;2023-06-22T06:53:37;101157.91;;;25.77;55.29
79411;BME280;69635;50.964;6.948;2023-06-22T06:56:03;101153.09;;;26.13;54.18
79411;BME280;69635;50.964;6.948;2023-06-22T06:58:30;101147.25;;;25.89;54.75
79411;BME280;69635;50.964;6.948;2023-06-22T07:00:56;101136.00;;;25.33;56.68
79411;BME280;69635;50.964;6.948;2023-06-22T07:03:21;101141.22;;;25.53;56.92
79411;BME280;69635;50.964;6.948;2023-06-22T07:05:46;101120.34;;;25.40;56.21
79411;BME280;69635;50.964;6.948;2023-06-22T07:08:18;101129.69;;;25.01;57.59
79411;BME280;69635;50.964;6.948;2023-06-22T07:10:44;101112.72;;;24.82;57.85
79411;BME280;69635;50.964;6.948;2023-06-22T07:13:12;101121.06;;;25.26;57.17
79411;BME280;69635;50.964;6.948;2023-06-22T07:15:52;101119.81;;;25.49;56.23
79411;BME280;69635;50.964;6.948;2023-06-22T07:34:33;101107.06;;;26.85;52.03
79411;BME280;69635;50.964;6.948;2023-06-22T07:37:19;101105.88;;;27.45;49.93
79411;BME280;69635;50.964;6.948;2023-06-22T07:40:21;101104.50;;;27.10;51.40
79411;BME280;69635;50.964;6.948;2023-06-22T07:42:52;101096.31;;;26.54;51.75
79411;BME280;69635;50.964;6.948;2023-06-22T07:45:34;101092.34;;;26.15;53.52
79411;BME280;69635;50.964;6.948;2023-06-22T07:48:02;101067.72;;;25.89;54.49
79411;BME280;69635;50.964;6.948;2023-06-22T07:50:34;101084.06;;;26.18;54.64
79411;BME280;69635;50.964;6.948;2023-06-22T07:53:02;101062.34;;;26.76;52.90
79411;BME280;69635;50.964;6.948;2023-06-22T07:55:36;101085.78;;;28.01;50.15
79411;BME280;69635;50.964;6.948;2023-06-22T07:58:01;101087.19;;;28.58;48.09
79411;BME280;69635;50.964;6.948;2023-06-22T08:00:30;101047.22;;;28.84;46.46
79411;BME280;69635;50.964;6.948;2023-06-22T08:03:00;101078.81;;;29.48;45.56
79411;BME280;69635;50.964;6.948;2023-06-22T08:05:31;101066.56;;;29.30;45.91
79411;BME280;69635;50.964;6.948;2023-06-22T08:08:08;101066.22;;;29.34;45.78
79411;BME280;69635;50.964;6.948;2023-06-22T08:10:59;101049.19;;;28.82;46.75
79411;BME280;69635;50.964;6.948;2023-06-22T08:13:37;101064.34;;;29.47;45.32
79411;BME280;69635;50.964;6.948;2023-06-22T08:16:43;101032.75;;;30.03;43.34
79411;BME280;69635;50.964;6.948;2023-06-22T08:19:17;101046.00;;;29.13;45.81
79411;BME280;69635;50.964;6.948;2023-06-22T08:21:46;101049.38;;;29.04;45.63
79411;BME280;69635;50.964;6.948;2023-06-22T08:24:21;101024.56;;;28.83;46.44
79411;BME280;69635;50.964;6.948;2023-06-22T08:26:56;101008.53;;;28.91;46.21
79411;BME280;69635;50.964;6.948;2023-06-22T08:29:49;101027.09;;;29.22;45.71
79411;BME280;69635;50.964;6.948;2023-06-22T08:35:03;101007.81;;;29.96;43.92
79411;BME280;69635;50.964;6.948;2023-06-22T08:37:44;101012.84;;;29.06;45.71
79411;BME280;69635;50.964;6.948;2023-06-22T08:40:18;101010.75;;;29.22;45.14
79411;BME280;69635;50.964;6.948;2023-06-22T08:42:51;101008.41;;;29.65;44.71
79411;BME280;69635;50.964;6.948;2023-06-22T08:52:58;100994.38;;;29.82;44.12
79411;BME280;69635;50.964;6.948;2023-06-22T08:55:24;100991.63;;;29.11;46.30
79411;BME280;69635;50.964;6.948;2023-06-22T08:58:00;100999.94;;;28.85;47.62
79411;BME280;69635;50.964;6.948;2023-06-22T09:00:42;100972.66;;;28.61;47.48
79411;BME280;69635;50.964;6.948;2023-06-22T09:03:20;100973.31;;;29.01;47.33
79411;BME280;69635;50.964;6.948;2023-06-22T09:05:58;100983.50;;;29.22;47.18
79411;BME280;69635;50.964;6.948;2023-06-22T09:11:29;100966.81;;;29.51;46.43
79411;BME280;69635;50.964;6.948;2023-06-22T09:18:17;100963.84;;;29.54;46.18
79411;BME280;69635;50.964;6.948;2023-06-22T09:23:38;100959.84;;;29.47;46.62
79411;BME280;69635;50.964;6.948;2023-06-22T09:26:39;100938.22;;;28.96;46.81
79411;BME280;69635;50.964;6.948;2023-06-22T13:06:28;100798.94;;;25.53;73.00
79411;BME280;69635;50.964;6.948;2023-06-22T13:08:57;100776.66;;;25.34;72.94
79411;BME280;69635;50.964;6.948;2023-06-22T13:11:23;100786.28;;;25.09;74.74
79411;BME280;69635;50.964;6.948;2023-06-22T13:13:48;100774.28;;;25.13;74.59
79411;BME280;69635;50.964;6.948;2023-06-22T13:16:14;100778.06;;;25.55;71.52
79411;BME280;69635;50.964;6.948;2023-06-22T13:18:39;100779.13;;;25.80;70.71
79411;BME280;69635;50.964;6.948;2023-06-22T13:21:05;100776.50;;;25.93;71.50
79411;BME280;69635;50.964;6.948;2023-06-22T13:23:30;100769.22;;;26.21;68.90
79411;BME280;69635;50.964;6.948;2023-06-22T13:25:57;100755.38;;;25.98;68.67
79411;BME280;69635;50.964;6.948;2023-06-22T13:28:23;100744.53;;;26.53;67.06
79411;BME280;69635;50.964;6.948;2023-06-22T13:30:51;100741.47;;;26.71;67.56
79411;BME280;69635;50.964;6.948;2023-06-22T13:33:16;100733.13;;;26.87;65.78
79411;BME280;69635;50.964;6.948;2023-06-22T13:35:42;100736.13;;;26.70;66.04
79411;BME280;69635;50.964;6.948;2023-06-22T13:38:10;100731.09;;;27.15;63.45
79411;BME280;69635;50.964;6.948;2023-06-22T13:40:36;100718.59;;;27.00;64.64
79411;BME280;69635;50.964;6.948;2023-06-22T13:43:03;100706.88;;;27.12;63.26
79411;BME280;69635;50.964;6.948;2023-06-22T13:45:29;100705.91;;;27.39;62.55
79411;BME280;69635;50.964;6.948;2023-06-22T13:47:54;100697.44;;;27.18;63.47
79411;BME280;69635;50.964;6.948;2023-06-22T13:50:20;100684.63;;;27.20;62.86
79411;BME280;69635;50.964;6.948;2023-06-22T13:52:45;100687.47;;;27.44;61.30
79411;BME280;69635;50.964;6.948;2023-06-22T13:55:11;100682.44;;;27.25;61.78
79411;BME280;69635;50.964;6.948;2023-06-22T13:57:36;100665.63;;;27.33;62.37
79411;BME280;69635;50.964;6.948;2023-06-22T14:00:03;100663.63;;;26.84;63.02
79411;BME280;69635;50.964;6.948;2023-06-22T14:02:30;100655.69;;;26.94;62.53
79411;BME280;69635;50.964;6.948;2023-06-22T14:04:55;100643.56;;;26.60;63.48
79411;BME280;69635;50.964;6.948;2023-06-22T14:07:21;100619.56;;;26.93;61.91
79411;BME280;69635;50.964;6.948;2023-06-22T14:09:47;100609.72;;;27.28;60.78
79411;BME280;69635;50.964;6.948;2023-06-22T14:12:12;100614.09;;;27.18;60.55
79411;BME280;69635;50.964;6.948;2023-06-22T14:14:38;100625.22;;;27.64;58.65
79411;BME280;69635;50.964;6.948;2023-06-22T14:17:06;100625.72;;;27.20;58.97
79411;BME280;69635;50.964;6.948;2023-06-22T14:19:32;100631.53;;;26.64;61.61
79411;BME280;69635;50.964;6.948;2023-06-22T14:21:57;100614.59;;;26.48;61.71
79411;BME280;69635;50.964;6.948;2023-06-22T14:24:23;100612.91;;;26.20;62.09
79411;BME280;69635;50.964;6.948;2023-06-22T14:26:49;100599.47;;;26.32;62.31
79411;BME280;69635;50.964;6.948;2023-06-22T14:29:14;100580.16;;;26.36;62.92
79411;BME280;69635;50.964;6.948;2023-06-22T14:31:40;100571.19;;;26.61;60.80
79411;BME280;69635;50.964;6.948;2023-06-22T14:34:05;100568.81;;;26.56;61.04
79411;BME280;69635;50.964;6.948;2023-06-22T14:36:31;100579.66;;;26.44;60.83
79411;BME280;69635;50.964;6.948;2023-06-22T14:38:57;100579.00;;;26.40;61.27
79411;BME280;69635;50.964;6.948;2023-06-22T14:41:22;100574.94;;;26.20;62.52
79411;BME280;69635;50.964;6.948;2023-06-22T14:43:49;100568.59;;;26.07;62.50
79411;BME280;69635;50.964;6.948;2023-06-22T14:46:18;100576.63;;;25.82;63.43
79411;BME280;69635;50.964;6.948;2023-06-22T14:48:44;100574.53;;;25.73;64.23
79411;BME280;69635;50.964;6.948;2023-06-22T14:51:14;100562.16;;;25.69;63.77
79411;BME280;69635;50.964;6.948;2023-06-22T14:53:43;100549.81;;;25.51;63.52
79411;BME280;69635;50.964;6.948;2023-06-22T14:56:09;100547.94;;;25.66;64.16
79411;BME280;69635;50.964;6.948;2023-06-22T14:58:35;100548.91;;;25.65;64.13
79411;BME280;69635;50.964;6.948;2023-06-22T15:01:04;100527.59;;;25.32;68.64
79411;BME280;69635;50.964;6.948;2023-06-22T15:03:31;100504.56;;;24.84;70.54
79411;BME280;69635;50.964;6.948;2023-06-22T15:05:58;100526.09;;;24.44;73.54
79411;BME280;69635;50.964;6.948;2023-06-22T15:08:32;100527.81;;;24.01;76.38
79411;BME280;69635;50.964;6.948;2023-06-22T15:10:59;100516.47;;;23.65;78.75
79411;BME280;69635;50.964;6.948;2023-06-22T15:13:26;100531.81;;;23.33;81.37
79411;BME280;69635;50.964;6.948;2023-06-22T15:21:09;100568.00;;;22.65;86.55
79411;BME280;69635;50.964;6.948;2023-06-22T15:23:34;100529.34;;;22.32;89.52
79411;BME280;69635;50.964;6.948;2023-06-22T15:26:06;100503.53;;;22.11;92.27
79411;BME280;69635;50.964;6.948;2023-06-22T15:28:35;100503.53;;;22.11;92.27
79411;BME280;69635;50.964;6.948;2023-06-22T15:32:01;58409.91;;;-141.65;100.00
79411;BME280;69635;50.964;6.948;2023-06-22T15:35:20;58409.91;;;-141.65;100.00
79411;BME280;69635;50.964;6.948;2023-06-22T15:37:54;58409.91;;;-141.65;100.00
79411;BME280;69635;50.964;6.948;2023-06-22T15:40:26;81604.28;;;22.11;100.00
79411;BME280;69635;50.964;6.948;2023-06-22T15:43:11;58409.91;;;-141.65;100.00
79411;BME280;69635;50.964;6.948;2023-06-22T15:46:36;58409.91;;;-141.65;100.00
79411;BME280;69635;50.964;6.948;2023-06-22T15:49:02;100503.53;;;22.11;92.27
79411;BME280;69635;50.964;6.948;2023-06-22T15:51:34;100485.31;;;21.82;92.29
79411;BME280;69635;50.964;6.948;2023-06-22T15:53:59;100485.31;;;21.82;93.27
79411;BME280;69635;50.964;6.948;2023-06-22T15:56:27;100487.13;;;21.81;92.60
79411;BME280;69635;50.964;6.948;2023-06-22T15:59:03;100492.28;;;21.86;92.59
79411;BME280;69635;50.964;6.948;2023-06-22T16:01:29;100473.97;;;21.75;92.88
79411;BME280;69635;50.964;6.948;2023-06-22T16:03:54;100464.78;;;21.79;93.05
79411;BME280;69635;50.964;6.948;2023-06-22T16:06:20;100470.13;;;21.81;92.79
79411;BME280;69635;50.964;6.948;2023-06-22T16:08:52;100459.44;;;21.78;92.43
79411;BME280;69635;50.964;6.948;2023-06-22T16:11:17;100450.75;;;21.73;92.36
79411;BME280;69635;50.964;6.948;2023-06-22T16:13:43;100439.34;;;21.68;91.96
79411;BME280;69635;50.964;6.948;2023-06-22T16:16:11;100432.28;;;21.65;92.56
79411;BME280;69635;50.964;6.948;2023-06-22T16:18:36;100427.06;;;21.62;92.65
79411;BME280;69635;50.964;6.948;2023-06-22T16:21:07;100405.44;;;21.64;93.48
79411;BME280;69635;50.964;6.948;2023-06-22T16:23:32;100391.81;;;21.67;92.69
79411;BME280;69635;50.964;6.948;2023-06-22T16:25:58;100394.72;;;21.81;92.84
79411;BME280;69635;50.964;6.948;2023-06-22T16:28:23;100399.94;;;21.84;93.01
79411;BME280;69635;50.964;6.948;2023-06-22T16:30:49;100388.19;;;21.85;92.48
79411;BME280;69635;50.964;6.948;2023-06-22T16:33:15;100403.16;;;21.90;92.76
79411;BME280;69635;50.964;6.948;2023-06-22T16:35:42;100383.59;;;21.87;93.11
79411;BME280;69635;50.964;6.948;2023-06-22T16:38:11;100374.72;;;21.85;93.36
79411;BME280;69635;50.964;6.948;2023-06-22T16:40:39;100333.81;;;21.94;90.86
79411;BME280;69635;50.964;6.948;2023-06-22T16:43:24;100395.66;;;21.80;92.16
79411;BME280;69635;50.964;6.948;2023-06-22T16:48:27;100367.28;;;21.90;92.96
79411;BME280;69635;50.964;6.948;2023-06-22T16:51:02;100379.63;;;21.94;93.43
79411;BME280;69635;50.964;6.948;2023-06-22T16:53:53;100370.84;;;21.90;93.00
79411;BME280;69635;50.964;6.948;2023-06-22T16:56:23;100373.72;;;22.03;92.20
79411;BME280;69635;50.964;6.948;2023-06-22T16:58:51;100389.09;;;22.01;92.29
79411;BME280;69635;50.964;6.948;2023-06-22T17:01:19;100379.97;;;21.88;91.91
79411;BME280;69635;50.964;6.948;2023-06-22T17:03:52;100391.75;;;21.85;92.87
79411;BME280;69635;50.964;6.948;2023-06-22T17:06:21;100387.16;;;21.87;91.33
79411;BME280;69635;50.964;6.948;2023-06-22T17:08:48;100399.19;;;21.97;91.56
79411;BME280;69635;50.964;6.948;2023-06-22T17:11:13;100386.75;;;21.95;90.08
79411;BME280;69635;50.964;6.948;2023-06-22T17:13:39;100399.03;;;22.00;89.16
79411;BME280;69635;50.964;6.948;2023-06-22T17:16:05;100395.78;;;21.94;89.13
79411;BME280;69635;50.964;6.948;2023-06-22T17:18:46;100405.94;;;21.89;89.06
79411;BME280;69635;50.964;6.948;2023-06-22T17:21:22;100404.28;;;21.86;89.98
79411;BME280;69635;50.964;6.948;2023-06-22T17:24:15;100413.78;;;21.93;90.12
79411;BME280;69635;50.964;6.948;2023-06-22T17:26:45;100394.28;;;21.88;89.96
79411;BME280;69635;50.964;6.948;2023-06-22T17:29:12;100394.38;;;21.87;90.28